Terminal Aerodrome Forecast
Issued by NWS Charleston, WV

Current Version | Previous Version | Text Only | Print | Product List | Glossary Off
Versions: 1 2 3 4 5 6 7 8 9 10 11 12 13 14 15 16 17 18 19 20 21 22 23 24 25 26 27 28 29 30 31 32 33 34 35 36 37

792
FTUS41 KRLX 262348
TAFHTS
TAF
KHTS 262348Z 2700/2724 00000KT P6SM BKN060
     FM270700 00000KT 5SM BR BKN060
     FM270900 00000KT 2SM BR BKN040
     FM271200 00000KT 3SM BR BKN040
      TEMPO 2712/2714 6SM BR BKN025
     FM271400 00000KT P6SM BKN040=

USA.gov is the U.S. government's official web portal to all federal, state and local government web resources and services.